createdAt,value
2022-12-14T00:01:18.631Z,12.35
2022-12-14T00:03:45.697Z,11.60
2022-12-14T00:06:17.991Z,12.20
2022-12-14T00:08:45.952Z,9.90
2022-12-14T00:11:14.051Z,13.00
2022-12-14T00:13:41.236Z,11.18
2022-12-14T00:16:10.540Z,15.35
2022-12-14T00:18:36.958Z,11.90
2022-12-14T00:21:13.716Z,9.95
2022-12-14T00:23:41.448Z,11.05
2022-12-14T00:26:13.455Z,10.85
2022-12-14T00:28:40.461Z,12.27
2022-12-14T00:31:07.247Z,10.27
2022-12-14T00:33:34.257Z,9.85
2022-12-14T00:36:01.305Z,9.68
2022-12-14T00:38:28.469Z,13.00
2022-12-14T00:40:55.353Z,8.82
2022-12-14T00:43:22.668Z,11.48
2022-12-14T00:45:49.222Z,11.25
2022-12-14T00:48:17.724Z,12.30
2022-12-14T00:50:48.871Z,9.27
2022-12-14T00:53:15.568Z,9.50
2022-12-14T00:55:50.167Z,8.77
2022-12-14T00:58:18.935Z,9.00
2022-12-14T01:00:45.736Z,9.70
2022-12-14T01:03:12.528Z,9.52
2022-12-14T01:05:39.337Z,9.93
2022-12-14T01:08:06.113Z,11.93
2022-12-14T01:10:32.556Z,9.40
2022-12-14T01:12:58.981Z,10.38
2022-12-14T01:15:32.882Z,9.35
2022-12-14T01:18:01.618Z,9.30
2022-12-14T01:20:28.002Z,11.48
2022-12-14T01:22:56.120Z,11.68
2022-12-14T01:25:23.128Z,9.35
2022-12-14T01:27:49.782Z,10.07
2022-12-14T01:30:25.785Z,13.15
2022-12-14T01:32:52.235Z,9.65
2022-12-14T01:35:18.702Z,9.57
2022-12-14T01:37:45.166Z,7.70
2022-12-14T01:40:15.430Z,8.73
2022-12-14T01:42:42.146Z,8.57
2022-12-14T01:45:19.600Z,10.48
2022-12-14T01:47:53.816Z,9.13
2022-12-14T01:50:35.050Z,10.48
2022-12-14T01:53:05.106Z,8.98
2022-12-14T01:55:54.174Z,11.20
2022-12-14T01:58:22.577Z,9.30
2022-12-14T02:00:54.251Z,9.52
2022-12-14T02:03:27.220Z,10.90
2022-12-14T02:06:03.837Z,10.68
2022-12-14T02:08:33.869Z,11.50
2022-12-14T02:11:00.621Z,8.77
2022-12-14T02:13:34.733Z,9.98
2022-12-14T02:16:01.212Z,8.75
2022-12-14T02:18:29.672Z,9.20
2022-12-14T02:21:19.475Z,10.10
2022-12-14T02:23:53.492Z,9.93
2022-12-14T02:26:51.277Z,10.68
2022-12-14T02:29:44.984Z,9.98
2022-12-14T02:32:42.358Z,9.73
2022-12-14T02:35:24.953Z,8.98
2022-12-14T02:38:03.938Z,9.30
2022-12-14T02:40:35.614Z,7.95
2022-12-14T02:43:04.560Z,10.10
2022-12-14T02:45:47.881Z,8.48
2022-12-14T02:48:18.462Z,9.57
2022-12-14T02:51:15.656Z,11.95
2022-12-14T02:54:01.686Z,9.02
2022-12-14T02:56:37.118Z,9.20
2022-12-14T02:59:04.281Z,8.68
2022-12-14T03:01:31.430Z,7.88
2022-12-14T03:03:58.226Z,11.20
2022-12-14T03:06:27.722Z,8.50
2022-12-14T03:08:58.419Z,9.60
2022-12-14T03:11:36.826Z,8.15
2022-12-14T03:14:09.057Z,7.13
2022-12-14T03:16:43.266Z,8.38
2022-12-14T03:19:24.071Z,8.18
2022-12-14T03:21:55.038Z,9.75
2022-12-14T03:24:25.884Z,11.18
2022-12-14T03:27:06.879Z,8.20
2022-12-14T03:29:39.630Z,7.47
2022-12-14T03:32:09.680Z,8.23
2022-12-14T03:34:39.449Z,9.95
2022-12-14T03:37:14.013Z,8.40
2022-12-14T03:39:42.303Z,11.00
2022-12-14T03:42:21.269Z,11.52
2022-12-14T03:45:14.334Z,11.30
2022-12-14T03:47:49.555Z,8.73
2022-12-14T03:50:38.690Z,8.65
2022-12-14T03:53:51.412Z,9.05
2022-12-14T03:56:33.943Z,9.43
2022-12-14T03:59:14.899Z,10.20
2022-12-14T04:01:44.119Z,8.93
2022-12-14T04:04:19.395Z,9.73
2022-12-14T04:06:59.891Z,9.95
2022-12-14T04:09:38.940Z,8.63
2022-12-14T04:12:44.305Z,9.15
2022-12-14T04:15:39.257Z,10.60
2022-12-14T04:18:30.233Z,10.05
2022-12-14T04:21:03.692Z,8.93
2022-12-14T04:23:52.937Z,8.50
2022-12-14T04:26:23.939Z,8.70
2022-12-14T04:29:19.717Z,10.43
2022-12-14T04:31:49.853Z,9.68
2022-12-14T04:34:17.146Z,9.30
2022-12-14T04:36:48.285Z,8.23
2022-12-14T04:39:27.115Z,10.75
2022-12-14T04:41:56.006Z,14.07
2022-12-14T04:44:25.992Z,13.35
2022-12-14T04:46:53.645Z,9.10
2022-12-14T04:49:24.125Z,9.88
2022-12-14T04:52:03.584Z,9.90
2022-12-14T04:54:36.409Z,9.10
2022-12-14T04:57:08.282Z,10.30
2022-12-14T04:59:35.188Z,10.73
2022-12-14T05:02:20.044Z,10.13
2022-12-14T05:04:57.195Z,9.90
2022-12-14T05:07:37.069Z,10.88
2022-12-14T05:10:07.396Z,9.85
2022-12-14T05:12:44.672Z,10.38
2022-12-14T05:15:17.240Z,8.98
2022-12-14T05:17:43.641Z,13.18
2022-12-14T05:20:17.184Z,11.07
2022-12-14T05:22:44.438Z,15.85
2022-12-14T05:25:11.328Z,15.43
2022-12-14T05:27:37.803Z,17.35
2022-12-14T05:30:06.459Z,12.27
2022-12-14T05:32:33.208Z,12.40
2022-12-14T05:34:59.895Z,9.63
2022-12-14T05:37:26.211Z,11.80
2022-12-14T05:39:52.565Z,14.68
2022-12-14T05:42:18.974Z,11.27
2022-12-14T05:44:45.400Z,12.70
2022-12-14T05:47:13.448Z,11.75
2022-12-14T05:49:39.878Z,9.60
2022-12-14T05:52:06.462Z,10.98
2022-12-14T05:54:32.817Z,20.13
2022-12-14T05:56:59.142Z,15.60
2022-12-14T05:59:25.705Z,13.95
2022-12-14T06:01:52.104Z,12.75
2022-12-14T06:04:19.194Z,13.38
2022-12-14T06:06:45.752Z,11.70
2022-12-14T06:09:15.774Z,15.82
2022-12-14T06:11:42.884Z,16.92
2022-12-14T06:14:10.588Z,15.32
2022-12-14T06:16:40.111Z,11.15
2022-12-14T06:19:06.482Z,11.00
2022-12-14T06:21:35.334Z,14.70
2022-12-14T06:24:02.252Z,14.52
2022-12-14T06:26:29.919Z,16.92
2022-12-14T06:28:56.772Z,12.93
2022-12-14T06:31:25.555Z,15.52
2022-12-14T06:33:53.127Z,14.10
2022-12-14T06:36:24.443Z,15.93
2022-12-14T06:38:51.279Z,13.10
2022-12-14T06:41:17.838Z,13.93
2022-12-14T06:43:44.262Z,13.40
2022-12-14T06:46:15.983Z,11.43
2022-12-14T06:48:43.067Z,14.15
2022-12-14T06:51:15.901Z,14.57
2022-12-14T06:53:42.219Z,15.47
2022-12-14T06:56:14.078Z,31.38
2022-12-14T06:58:40.647Z,35.15
2022-12-14T07:01:15.608Z,27.52
2022-12-14T07:03:42.833Z,18.60
2022-12-14T07:06:10.250Z,12.32
2022-12-14T07:08:38.198Z,12.90
2022-12-14T07:11:06.609Z,13.27
2022-12-14T07:13:33.076Z,12.98
2022-12-14T07:16:00.407Z,12.93
2022-12-14T07:18:27.685Z,13.73
2022-12-14T07:21:01.230Z,13.65
2022-12-14T07:23:29.911Z,11.63
2022-12-14T07:26:17.268Z,13.90
2022-12-14T07:28:44.356Z,15.32
2022-12-14T07:31:14.364Z,12.20
2022-12-14T07:33:40.969Z,12.50
2022-12-14T07:36:12.885Z,16.27
2022-12-14T07:38:40.638Z,21.60
2022-12-14T07:41:12.310Z,15.27
2022-12-14T07:43:39.852Z,16.33
2022-12-14T07:46:08.791Z,14.30
2022-12-14T07:48:35.788Z,16.75
2022-12-14T07:51:03.642Z,14.65
2022-12-14T07:53:30.509Z,15.43
2022-12-14T07:56:00.899Z,12.57
2022-12-14T07:58:27.354Z,18.38
2022-12-14T08:00:53.682Z,12.00
2022-12-14T08:03:19.996Z,12.52
2022-12-14T08:05:46.349Z,14.27
2022-12-14T08:08:12.667Z,12.57
2022-12-14T08:10:40.587Z,16.50
2022-12-14T08:13:07.466Z,13.88
2022-12-14T08:15:37.673Z,18.83
2022-12-14T08:18:04.213Z,14.60
2022-12-14T08:20:30.507Z,11.85
2022-12-14T08:22:56.833Z,12.93
2022-12-14T08:25:29.455Z,13.05
2022-12-14T08:27:55.817Z,11.80
2022-12-14T08:30:22.431Z,11.55
2022-12-14T08:32:48.733Z,16.95
2022-12-14T08:35:15.693Z,13.65
2022-12-14T08:37:47.341Z,11.80
2022-12-14T08:40:14.000Z,12.98
2022-12-14T08:42:40.557Z,14.68
2022-12-14T08:45:07.368Z,13.90
2022-12-14T08:47:33.730Z,14.13
2022-12-14T08:50:00.049Z,16.88
2022-12-14T08:52:26.372Z,13.40
2022-12-14T08:54:52.734Z,14.48
2022-12-14T08:57:19.450Z,14.73
2022-12-14T09:00:01.210Z,12.05
2022-12-14T09:02:28.607Z,16.08
2022-12-14T09:04:55.081Z,16.50
2022-12-14T09:07:21.553Z,14.20
2022-12-14T09:09:47.865Z,16.50
2022-12-14T09:12:14.308Z,15.77
2022-12-14T09:14:40.632Z,20.00
2022-12-14T09:17:07.396Z,20.38
2022-12-14T09:19:33.977Z,15.65
2022-12-14T09:22:00.380Z,15.90
2022-12-14T09:24:28.299Z,23.40
2022-12-14T09:26:54.793Z,14.65
2022-12-14T09:29:21.216Z,18.70
2022-12-14T09:31:47.787Z,16.80
2022-12-14T09:34:14.317Z,15.80
2022-12-14T09:36:40.653Z,19.38
2022-12-14T09:39:07.002Z,18.20
2022-12-14T09:41:33.334Z,21.33
2022-12-14T09:44:27.251Z,15.05
2022-12-14T09:47:16.641Z,19.42
2022-12-14T09:50:16.055Z,19.60
2022-12-14T09:52:45.734Z,15.60
2022-12-14T09:55:20.794Z,16.88
2022-12-14T09:57:48.917Z,23.65
2022-12-14T10:00:18.789Z,15.45
2022-12-14T10:03:14.753Z,17.50
2022-12-14T10:06:21.208Z,16.08
2022-12-14T10:08:54.590Z,21.13
2022-12-14T10:14:14.773Z,20.85
2022-12-14T10:17:00.203Z,22.23
2022-12-14T10:19:43.196Z,18.77
2022-12-14T10:22:15.091Z,18.35
2022-12-14T10:25:05.575Z,15.32
2022-12-14T10:27:54.014Z,16.13
2022-12-14T10:30:21.052Z,19.55
2022-12-14T10:32:52.323Z,16.17
2022-12-14T10:35:34.711Z,16.50
2022-12-14T10:38:06.548Z,19.35
2022-12-14T10:40:35.006Z,14.70
2022-12-14T10:43:19.969Z,16.25
2022-12-14T10:46:01.839Z,13.77
2022-12-14T10:48:31.387Z,20.73
2022-12-14T10:51:19.797Z,18.92
2022-12-14T10:53:50.487Z,14.32
2022-12-14T10:56:21.275Z,15.45
2022-12-14T10:59:18.433Z,16.77
2022-12-14T11:01:46.400Z,18.13
2022-12-14T11:04:36.624Z,17.58
2022-12-14T11:07:08.549Z,18.52
2022-12-14T11:09:35.748Z,17.38
2022-12-14T11:12:06.319Z,16.48
2022-12-14T11:14:36.073Z,15.88
2022-12-14T11:17:02.515Z,13.73
2022-12-14T11:19:29.521Z,14.77
2022-12-14T11:22:09.073Z,18.08
2022-12-14T11:24:43.668Z,16.38
2022-12-14T11:27:10.663Z,15.55
2022-12-14T11:29:39.279Z,14.52
2022-12-14T11:32:06.229Z,14.82
2022-12-14T11:34:38.347Z,13.95
2022-12-14T11:37:23.023Z,14.90
2022-12-14T11:39:51.674Z,19.08
2022-12-14T11:42:19.563Z,16.38
2022-12-14T11:44:48.398Z,14.40
2022-12-14T11:47:17.811Z,14.30
2022-12-14T11:49:46.547Z,16.33
2022-12-14T11:52:39.196Z,13.80
2022-12-14T11:55:26.470Z,17.45
2022-12-14T11:58:11.643Z,14.18
2022-12-14T12:00:47.447Z,12.70
2022-12-14T12:03:27.076Z,15.68
2022-12-14T12:05:53.982Z,14.93
2022-12-14T12:08:23.841Z,17.75
2022-12-14T12:10:52.276Z,14.00
2022-12-14T12:13:42.142Z,15.55
2022-12-14T12:16:17.300Z,17.02
2022-12-14T12:18:51.442Z,17.05
2022-12-14T12:21:25.000Z,16.73
2022-12-14T12:23:59.601Z,12.70
2022-12-14T12:26:30.494Z,14.57
2022-12-14T12:29:03.648Z,15.73
2022-12-14T12:31:34.768Z,12.68
2022-12-14T12:34:12.128Z,15.45
2022-12-14T12:36:51.570Z,13.60
2022-12-14T12:39:25.230Z,17.67
2022-12-14T12:42:03.564Z,16.45
2022-12-14T12:44:40.482Z,14.52
2022-12-14T12:47:30.178Z,14.30
2022-12-14T12:50:06.437Z,13.52
2022-12-14T12:52:37.617Z,13.77
2022-12-14T12:55:24.317Z,13.65
2022-12-14T12:57:55.024Z,14.07
2022-12-14T13:00:25.282Z,14.05
2022-12-14T13:02:55.507Z,14.35
2022-12-14T13:08:37.059Z,13.20
2022-12-14T13:11:27.343Z,13.85
2022-12-14T13:13:58.029Z,13.60
2022-12-14T13:16:33.008Z,14.40
2022-12-14T13:21:52.900Z,13.85
2022-12-14T13:24:21.931Z,14.00
2022-12-14T13:26:58.515Z,14.57
2022-12-14T13:29:37.419Z,13.10
2022-12-14T13:32:41.295Z,13.50
2022-12-14T13:35:45.071Z,13.87
2022-12-14T13:38:17.475Z,13.18
2022-12-14T13:41:21.632Z,14.88
2022-12-14T13:43:51.338Z,13.55
2022-12-14T13:46:23.638Z,14.43
2022-12-14T13:48:53.424Z,13.25
2022-12-14T13:51:25.361Z,12.90
2022-12-14T13:53:58.846Z,17.60
2022-12-14T13:56:33.623Z,20.75
2022-12-14T13:59:03.743Z,25.05
2022-12-14T14:01:48.195Z,19.92
2022-12-14T14:04:18.324Z,15.82
2022-12-14T14:06:46.506Z,16.73
2022-12-14T14:09:31.482Z,14.05
2022-12-14T14:12:03.496Z,15.10
2022-12-14T14:14:52.126Z,12.43
2022-12-14T14:17:39.391Z,13.20
2022-12-14T14:20:34.809Z,11.15
2022-12-14T14:23:26.209Z,12.68
2022-12-14T14:26:10.313Z,12.23
2022-12-14T14:31:04.015Z,12.10
2022-12-14T14:33:45.621Z,11.77
2022-12-14T14:36:20.794Z,11.70
2022-12-14T14:38:47.390Z,13.63
2022-12-14T14:41:22.739Z,11.32
2022-12-14T14:43:52.137Z,10.15
2022-12-14T14:46:22.835Z,11.15
2022-12-14T14:48:56.788Z,12.85
2022-12-14T14:51:30.765Z,13.20
2022-12-14T14:57:02.511Z,13.17
2022-12-14T14:59:39.209Z,12.27
2022-12-14T15:02:23.689Z,14.52
2022-12-14T15:04:51.849Z,13.98
2022-12-14T15:07:29.573Z,13.77
2022-12-14T15:10:23.069Z,14.77
2022-12-14T15:12:52.228Z,15.88
2022-12-14T15:15:28.278Z,14.55
2022-12-14T15:17:54.640Z,13.88
2022-12-14T15:20:27.463Z,24.50
2022-12-14T15:22:55.859Z,16.77
2022-12-14T15:25:27.690Z,13.98
2022-12-14T15:27:54.604Z,16.30
2022-12-14T15:30:23.274Z,14.00
2022-12-14T15:32:54.501Z,13.95
2022-12-14T15:35:26.780Z,11.95
2022-12-14T15:38:06.533Z,13.10
2022-12-14T15:40:34.130Z,13.57
2022-12-14T15:43:16.488Z,13.13
2022-12-14T15:45:44.787Z,12.13
2022-12-14T15:48:31.298Z,13.75
2022-12-14T15:51:03.128Z,13.55
2022-12-14T15:53:38.262Z,13.23
2022-12-14T15:56:26.167Z,14.32
2022-12-14T15:58:53.224Z,12.70
2022-12-14T16:01:54.398Z,12.88
2022-12-14T16:04:23.357Z,13.63
2022-12-14T16:06:56.971Z,13.70
2022-12-14T16:12:06.459Z,13.68
2022-12-14T16:14:34.498Z,13.32
2022-12-14T16:17:01.193Z,13.82
2022-12-14T16:19:44.984Z,12.73
2022-12-14T16:22:23.918Z,13.00
2022-12-14T16:25:03.384Z,12.75
2022-12-14T16:27:30.674Z,13.95
2022-12-14T16:30:25.001Z,12.95
2022-12-14T16:35:24.696Z,12.43
2022-12-14T16:37:54.286Z,12.82
2022-12-14T16:40:42.748Z,12.43
2022-12-14T16:43:36.650Z,12.30
2022-12-14T16:46:03.039Z,13.00
2022-12-14T16:48:30.812Z,11.32
2022-12-14T16:51:18.030Z,14.07
2022-12-14T16:54:05.527Z,13.45
2022-12-14T16:56:33.533Z,12.25
2022-12-14T16:59:04.537Z,14.18
2022-12-14T17:01:40.424Z,16.02
2022-12-14T17:04:08.374Z,12.65
2022-12-14T17:06:49.516Z,13.10
2022-12-14T17:09:27.795Z,14.95
2022-12-14T17:12:01.808Z,16.58
2022-12-14T17:14:28.407Z,16.95
2022-12-14T17:17:01.546Z,15.88
2022-12-14T17:19:34.041Z,17.23
2022-12-14T17:22:00.740Z,15.23
2022-12-14T17:24:27.337Z,14.63
2022-12-14T17:26:53.808Z,14.35
2022-12-14T17:29:23.417Z,17.85
2022-12-14T17:31:51.302Z,17.50
2022-12-14T17:34:18.199Z,18.15
2022-12-14T17:36:45.250Z,16.90
2022-12-14T17:39:11.776Z,17.63
2022-12-14T17:41:41.351Z,17.63
2022-12-14T17:44:13.404Z,16.70
2022-12-14T17:46:39.896Z,15.32
2022-12-14T17:49:07.003Z,15.35
2022-12-14T17:51:41.058Z,14.57
2022-12-14T17:54:14.190Z,18.92
2022-12-14T17:56:40.723Z,19.13
2022-12-14T17:59:07.061Z,17.65
2022-12-14T18:01:33.578Z,17.42
2022-12-14T18:04:00.199Z,20.63
2022-12-14T18:06:26.666Z,19.20
2022-12-14T18:08:53.106Z,18.98
2022-12-14T18:11:23.359Z,17.80
2022-12-14T18:13:51.134Z,18.27
2022-12-14T18:16:19.622Z,17.40
2022-12-14T18:18:46.142Z,20.67
2022-12-14T18:21:24.681Z,20.38
2022-12-14T18:23:52.163Z,20.23
2022-12-14T18:26:22.158Z,18.85
2022-12-14T18:28:49.434Z,17.98
2022-12-14T18:31:36.837Z,17.55
2022-12-14T18:34:04.287Z,18.95
2022-12-14T18:36:30.697Z,15.38
2022-12-14T18:38:57.411Z,17.85
2022-12-14T18:41:25.446Z,17.98
2022-12-14T18:43:52.079Z,15.38
2022-12-14T18:46:18.517Z,18.05
2022-12-14T18:48:45.092Z,16.58
2022-12-14T18:51:16.253Z,16.85
2022-12-14T18:53:43.088Z,17.20
2022-12-14T18:56:12.455Z,18.23
2022-12-14T18:58:41.730Z,15.23
2022-12-14T19:01:13.640Z,15.48
2022-12-14T19:03:40.120Z,19.63
2022-12-14T19:06:42.127Z,18.17
2022-12-14T19:08:57.006Z,17.00
2022-12-14T19:11:30.370Z,16.48
2022-12-14T19:13:56.789Z,16.92
2022-12-14T19:16:23.571Z,19.00
2022-12-14T19:18:51.001Z,19.77
2022-12-14T19:21:18.371Z,19.85
2022-12-14T19:23:44.905Z,17.17
2022-12-14T19:26:11.461Z,18.88
2022-12-14T19:28:38.127Z,18.27
2022-12-14T19:31:05.011Z,16.73
2022-12-14T19:33:32.090Z,19.20
2022-12-14T19:35:59.528Z,15.20
2022-12-14T19:38:25.905Z,15.43
2022-12-14T19:41:11.115Z,19.83
2022-12-14T19:43:38.158Z,18.73
2022-12-14T19:46:08.926Z,16.38
2022-12-14T19:48:35.652Z,17.23
2022-12-14T19:51:10.752Z,20.08
2022-12-14T19:53:38.244Z,16.67
2022-12-14T19:56:05.159Z,17.65
2022-12-14T19:58:31.843Z,19.35
2022-12-14T20:00:58.196Z,16.05
2022-12-14T20:03:25.084Z,18.00
2022-12-14T20:05:53.294Z,19.08
2022-12-14T20:08:19.666Z,18.60
2022-12-14T20:10:46.190Z,19.23
2022-12-14T20:13:12.798Z,22.33
2022-12-14T20:15:39.250Z,20.75
2022-12-14T20:18:07.298Z,18.15
2022-12-14T20:20:34.102Z,21.70
2022-12-14T20:23:00.442Z,22.38
2022-12-14T20:25:28.414Z,19.75
2022-12-14T20:27:54.925Z,20.10
2022-12-14T20:30:21.404Z,19.23
2022-12-14T20:32:49.112Z,19.02
2022-12-14T20:35:18.460Z,19.40
2022-12-14T20:37:45.522Z,18.55
2022-12-14T20:40:12.294Z,20.02
2022-12-14T20:42:38.761Z,19.30
2022-12-14T20:45:07.447Z,19.83
2022-12-14T20:47:33.981Z,18.58
2022-12-14T20:50:13.119Z,17.88
2022-12-14T20:52:39.440Z,18.33
2022-12-14T20:55:05.909Z,18.20
2022-12-14T20:57:38.799Z,17.40
2022-12-14T21:00:06.065Z,19.70
2022-12-14T21:02:33.117Z,33.30
2022-12-14T21:04:59.579Z,34.70
2022-12-14T21:07:26.593Z,36.15
2022-12-14T21:09:53.068Z,27.55
2022-12-14T21:12:22.225Z,25.48
2022-12-14T21:14:53.495Z,19.75
2022-12-14T21:17:22.702Z,18.65
2022-12-14T21:19:49.834Z,19.77
2022-12-14T21:22:25.717Z,22.02
2022-12-14T21:25:03.004Z,21.75
2022-12-14T21:27:30.971Z,19.95
2022-12-14T21:29:57.357Z,22.98
2022-12-14T21:32:24.006Z,23.05
2022-12-14T21:34:50.720Z,21.92
2022-12-14T21:37:17.077Z,23.95
2022-12-14T21:39:51.830Z,20.35
2022-12-14T21:42:20.559Z,19.73
2022-12-14T21:44:48.239Z,17.42
2022-12-14T21:47:19.972Z,16.65
2022-12-14T21:49:46.403Z,14.80
2022-12-14T21:52:19.091Z,16.05
2022-12-14T21:54:45.630Z,16.77
2022-12-14T21:57:35.562Z,17.63
2022-12-14T22:00:02.374Z,17.25
2022-12-14T22:02:29.230Z,16.85
2022-12-14T22:04:56.208Z,15.07
2022-12-14T22:07:30.151Z,21.15
2022-12-14T22:09:56.511Z,20.08
2022-12-14T22:12:22.886Z,18.17
2022-12-14T22:14:49.628Z,19.83
2022-12-14T22:17:16.024Z,19.75
2022-12-14T22:19:42.533Z,18.85
2022-12-14T22:22:16.225Z,21.52
2022-12-14T22:24:42.985Z,20.52
2022-12-14T22:27:12.538Z,21.08
2022-12-14T22:29:38.965Z,21.20
2022-12-14T22:32:05.950Z,18.95
2022-12-14T22:34:32.339Z,21.15
2022-12-14T22:36:58.792Z,22.83
2022-12-14T22:39:25.154Z,18.90
2022-12-14T22:41:51.494Z,18.65
2022-12-14T22:44:17.844Z,20.15
2022-12-14T22:46:44.352Z,18.80
2022-12-14T22:49:15.346Z,22.80
2022-12-14T22:51:41.760Z,20.83
2022-12-14T22:54:08.214Z,19.42
2022-12-14T22:56:39.197Z,18.75
2022-12-14T22:59:15.409Z,17.80
2022-12-14T23:01:42.649Z,17.65
2022-12-14T23:04:11.136Z,18.77
2022-12-14T23:06:37.885Z,18.95
2022-12-14T23:09:23.288Z,16.67
2022-12-14T23:12:11.498Z,19.73
2022-12-14T23:14:57.055Z,20.73
2022-12-14T23:17:42.426Z,19.15
2022-12-14T23:20:28.132Z,18.95
2022-12-14T23:23:13.139Z,18.25
2022-12-14T23:25:58.279Z,20.05
2022-12-14T23:28:42.944Z,18.80
2022-12-14T23:31:37.562Z,21.10
2022-12-14T23:34:22.301Z,15.98
2022-12-14T23:37:07.046Z,21.02
2022-12-14T23:39:53.984Z,18.13
2022-12-14T23:42:39.011Z,21.55
2022-12-14T23:45:24.590Z,20.98
2022-12-14T23:48:09.825Z,20.88
2022-12-14T23:50:54.664Z,19.10
2022-12-14T23:53:39.791Z,22.98
2022-12-14T23:56:25.198Z,18.25
2022-12-14T23:59:13.762Z,18.38
